Terminal Aerodrome Forecast
Issued by NWS Wilmington, OH

Current Version | Previous Version | Graphics & Text | Print | Product List | Glossary On
Versions: 1 2 3 4 5 6 7 8 9 10 11 12 13 14 15 16 17 18 19 20 21 22 23 24 25 26
854
FTUS41 KILN 022329
TAFILN
TAF
KILN 022329Z 0300/0324 01007KT P6SM SCT015 BKN025 OVC040
     FM030600 01005KT P6SM BKN015 OVC025
     FM030900 01005KT 4SM BR SCT006 BKN010 OVC022
     FM031400 36006KT P6SM SCT010 OVC022
     FM031900 32008KT P6SM BKN040=

USA.gov is the U.S. government's official web portal to all federal, state and local government web resources and services.